createdAt,value
2022-12-04T00:01:24.013Z,19.27
2022-12-04T00:04:00.371Z,20.30
2022-12-04T00:06:28.533Z,19.50
2022-12-04T00:08:56.574Z,19.35
2022-12-04T00:11:30.765Z,20.05
2022-12-04T00:14:04.822Z,18.60
2022-12-04T00:16:34.483Z,18.48
2022-12-04T00:19:02.113Z,18.80
2022-12-04T00:21:29.770Z,17.92
2022-12-04T00:23:57.408Z,19.02
2022-12-04T14:27:11.939Z,36.90
2022-12-04T14:29:54.630Z,35.00
2022-12-04T14:32:25.579Z,34.28
2022-12-04T14:37:28.760Z,32.10
2022-12-04T14:39:58.017Z,32.92
2022-12-04T14:42:30.280Z,31.80
2022-12-04T14:45:00.041Z,31.27
2022-12-04T14:47:47.578Z,29.92
2022-12-04T14:50:53.191Z,29.70
2022-12-04T14:53:49.241Z,30.45
2022-12-04T14:56:43.093Z,30.13
2022-12-04T14:59:22.141Z,30.85
2022-12-04T15:01:53.281Z,29.75
2022-12-04T15:04:32.396Z,30.67
2022-12-04T15:07:00.946Z,30.67
2022-12-04T15:09:47.880Z,31.02
2022-12-04T15:12:36.576Z,29.40
2022-12-04T15:15:17.734Z,29.52
2022-12-04T15:20:37.458Z,28.63
2022-12-04T15:23:06.768Z,28.48
2022-12-04T15:25:51.775Z,29.83
2022-12-04T15:28:31.504Z,29.15
2022-12-04T15:31:04.188Z,29.33
2022-12-04T15:33:37.572Z,30.30
2022-12-04T15:36:14.697Z,28.33
2022-12-04T15:38:42.825Z,27.88
2022-12-04T15:41:34.009Z,28.88
2022-12-04T15:46:35.133Z,28.77
2022-12-04T15:49:18.488Z,32.13
2022-12-04T15:51:47.857Z,28.73
2022-12-04T15:54:24.640Z,27.45
2022-12-04T15:57:22.981Z,28.92
2022-12-04T15:59:52.093Z,28.77
2022-12-04T16:02:33.221Z,27.73
2022-12-04T16:07:54.635Z,28.95
2022-12-04T16:10:25.008Z,30.45
2022-12-04T16:13:01.199Z,28.40
2022-12-04T16:15:37.761Z,29.35
2022-12-04T16:18:07.326Z,27.17
2022-12-04T16:20:38.418Z,28.52
2022-12-04T16:23:10.435Z,29.77
2022-12-04T16:25:38.585Z,29.48
2022-12-04T16:28:06.189Z,31.38
2022-12-04T16:30:35.920Z,28.75
2022-12-04T16:33:03.898Z,28.75
2022-12-04T16:35:31.843Z,30.30
2022-12-04T16:37:59.451Z,30.42
2022-12-04T16:40:27.040Z,30.20
2022-12-04T16:42:54.649Z,31.02
2022-12-04T16:45:32.241Z,31.25
2022-12-04T16:48:00.604Z,30.95
2022-12-04T16:50:29.103Z,30.55
2022-12-04T16:52:58.368Z,30.30
2022-12-04T16:55:34.036Z,30.27
2022-12-04T16:58:02.910Z,30.52
2022-12-04T17:00:31.087Z,29.70
2022-12-04T17:02:59.161Z,30.20
2022-12-04T17:05:29.053Z,31.85
2022-12-04T17:07:56.834Z,30.45
2022-12-04T17:10:26.889Z,29.52
2022-12-04T17:12:55.268Z,31.55
2022-12-04T17:15:22.986Z,30.15
2022-12-04T17:17:51.277Z,29.42
2022-12-04T17:20:21.413Z,30.40
2022-12-04T17:22:49.700Z,25.37
2022-12-04T17:25:18.365Z,29.90
2022-12-04T17:27:46.499Z,29.52
2022-12-04T17:30:14.819Z,30.33
2022-12-04T17:32:42.645Z,30.08
2022-12-04T17:35:12.280Z,30.33
2022-12-04T17:37:40.134Z,31.00
2022-12-04T17:40:10.742Z,30.05
2022-12-04T17:42:38.344Z,26.40
2022-12-04T17:45:06.793Z,30.20
2022-12-04T17:47:36.369Z,30.35
2022-12-04T17:50:07.615Z,30.60
2022-12-04T17:52:35.441Z,29.75
2022-12-04T17:55:03.119Z,31.20
2022-12-04T17:57:30.817Z,30.42
2022-12-04T17:59:58.434Z,30.60
2022-12-04T18:02:26.887Z,31.50
2022-12-04T18:04:56.319Z,32.05
2022-12-04T18:07:24.356Z,30.58
2022-12-04T18:09:52.001Z,30.85
2022-12-04T18:12:19.615Z,29.63
2022-12-04T18:14:47.267Z,31.40
2022-12-04T18:17:17.693Z,30.48
2022-12-04T18:19:45.272Z,28.77
2022-12-04T18:22:12.876Z,32.50
2022-12-04T18:24:40.549Z,32.08
2022-12-04T18:27:08.587Z,32.92
2022-12-04T18:29:36.524Z,32.38
2022-12-04T18:32:04.509Z,32.75
2022-12-04T18:34:32.636Z,32.67
2022-12-04T18:37:00.420Z,33.35
2022-12-04T18:39:28.444Z,34.38
2022-12-04T18:41:57.145Z,36.40
2022-12-04T18:44:27.858Z,34.30
2022-12-04T18:46:57.443Z,33.50
2022-12-04T18:49:25.164Z,35.45
2022-12-04T18:51:52.996Z,34.92
2022-12-04T18:54:23.860Z,34.55
2022-12-04T18:56:52.249Z,35.10
2022-12-04T18:59:22.541Z,36.63
2022-12-04T19:01:50.655Z,30.47
2022-12-04T19:04:20.008Z,34.30
2022-12-04T19:06:55.084Z,36.78
2022-12-04T19:09:47.274Z,38.85
2022-12-04T19:12:13.565Z,30.67
2022-12-04T19:14:41.226Z,37.83
2022-12-04T19:17:09.322Z,39.22
2022-12-04T19:19:37.089Z,36.35
2022-12-04T19:22:04.887Z,36.25
2022-12-04T19:24:32.821Z,36.83
2022-12-04T19:27:02.242Z,36.70
2022-12-04T19:29:29.949Z,35.15
2022-12-04T19:31:59.585Z,37.60
2022-12-04T19:34:27.500Z,35.50
2022-12-04T19:36:55.263Z,36.47
2022-12-04T19:39:22.939Z,33.13
2022-12-04T19:41:50.606Z,33.63
2022-12-04T19:47:05.852Z,35.05
2022-12-04T19:49:33.566Z,34.90
2022-12-04T19:52:01.308Z,32.78
2022-12-04T19:54:30.175Z,33.47
2022-12-04T19:56:57.805Z,35.95
2022-12-04T19:59:25.474Z,35.70
2022-12-04T20:01:53.135Z,35.15
2022-12-04T20:04:20.852Z,34.95
2022-12-04T20:06:48.527Z,33.58
2022-12-04T20:09:21.955Z,36.83
2022-12-04T20:11:49.614Z,35.47
2022-12-04T20:14:17.772Z,32.83
2022-12-04T20:16:46.523Z,32.40
2022-12-04T20:19:16.456Z,35.33
2022-12-04T20:21:45.329Z,37.20
2022-12-04T20:24:15.869Z,35.72
2022-12-04T20:26:45.433Z,34.38
2022-12-04T20:29:15.463Z,35.55
2022-12-04T20:31:45.487Z,27.87
2022-12-04T20:34:18.320Z,34.35
2022-12-04T20:36:47.502Z,34.50
2022-12-04T20:39:16.258Z,33.33
2022-12-04T20:41:44.043Z,33.05
2022-12-04T20:44:15.415Z,33.60
2022-12-04T20:46:43.288Z,32.88
2022-12-04T20:49:20.578Z,33.10
2022-12-04T20:51:50.827Z,32.97
2022-12-04T20:54:20.247Z,33.88
2022-12-04T20:56:49.431Z,33.63
2022-12-04T20:59:18.806Z,33.00
2022-12-04T21:01:47.497Z,34.22
2022-12-04T21:04:18.061Z,33.25
2022-12-04T21:06:47.199Z,31.98
2022-12-04T21:09:17.756Z,33.05
2022-12-04T21:11:48.106Z,33.03
2022-12-04T21:14:40.077Z,29.80
2022-12-04T21:17:10.771Z,32.58
2022-12-04T21:19:38.448Z,33.75
2022-12-04T21:22:06.234Z,31.75
2022-12-04T21:24:38.841Z,32.15
2022-12-04T21:27:09.245Z,30.95
